sensor_id;sensor_type;location;lat;lon;timestamp;temperature;humidity
4081;DHT22;2055;50.074;8.436;2023-09-08T00:00:51;20.20;99.90
4081;DHT22;2055;50.074;8.436;2023-09-08T00:03:16;21.80;99.90
4081;DHT22;2055;50.074;8.436;2023-09-08T00:05:42;20.30;99.90
4081;DHT22;2055;50.074;8.436;2023-09-08T00:08:07;20.10;99.90
4081;DHT22;2055;50.074;8.436;2023-09-08T00:10:33;20.20;99.90
4081;DHT22;2055;50.074;8.436;2023-09-08T00:12:59;20.20;99.90
4081;DHT22;2055;50.074;8.436;2023-09-08T00:15:24;20.00;99.90
4081;DHT22;2055;50.074;8.436;2023-09-08T00:17:50;20.00;99.90
4081;DHT22;2055;50.074;8.436;2023-09-08T00:20:15;19.40;99.90
4081;DHT22;2055;50.074;8.436;2023-09-08T00:22:41;19.90;99.90
4081;DHT22;2055;50.074;8.436;2023-09-08T00:25:06;19.80;99.90
4081;DHT22;2055;50.074;8.436;2023-09-08T00:27:32;19.80;99.90
4081;DHT22;2055;50.074;8.436;2023-09-08T00:29:58;19.80;99.90
4081;DHT22;2055;50.074;8.436;2023-09-08T00:32:24;19.40;99.90
4081;DHT22;2055;50.074;8.436;2023-09-08T00:34:49;20.80;99.90
4081;DHT22;2055;50.074;8.436;2023-09-08T00:37:15;19.40;99.90
4081;DHT22;2055;50.074;8.436;2023-09-08T00:39:40;19.70;99.90
4081;DHT22;2055;50.074;8.436;2023-09-08T00:42:06;19.80;99.90
4081;DHT22;2055;50.074;8.436;2023-09-08T00:44:32;19.80;99.90
4081;DHT22;2055;50.074;8.436;2023-09-08T00:46:58;19.80;99.90
4081;DHT22;2055;50.074;8.436;2023-09-08T00:49:24;19.80;99.90
4081;DHT22;2055;50.074;8.436;2023-09-08T00:51:50;19.70;99.90
4081;DHT22;2055;50.074;8.436;2023-09-08T00:54:16;19.70;99.90
4081;DHT22;2055;50.074;8.436;2023-09-08T00:56:41;19.70;99.90
4081;DHT22;2055;50.074;8.436;2023-09-08T00:59:07;19.60;99.90
4081;DHT22;2055;50.074;8.436;2023-09-08T01:01:33;19.70;99.90
4081;DHT22;2055;50.074;8.436;2023-09-08T01:04:00;20.20;99.90
4081;DHT22;2055;50.074;8.436;2023-09-08T01:06:26;20.10;99.90
4081;DHT22;2055;50.074;8.436;2023-09-08T01:08:53;22.40;99.90
4081;DHT22;2055;50.074;8.436;2023-09-08T01:11:20;19.70;99.90
4081;DHT22;2055;50.074;8.436;2023-09-08T01:13:46;19.80;99.90
4081;DHT22;2055;50.074;8.436;2023-09-08T01:16:12;19.60;99.90
4081;DHT22;2055;50.074;8.436;2023-09-08T01:18:37;19.80;99.90
4081;DHT22;2055;50.074;8.436;2023-09-08T01:21:22;19.80;99.90
4081;DHT22;2055;50.074;8.436;2023-09-08T01:24:11;19.80;99.90
4081;DHT22;2055;50.074;8.436;2023-09-08T01:26:43;19.90;99.90
4081;DHT22;2055;50.074;8.436;2023-09-08T01:29:09;20.10;99.90
4081;DHT22;2055;50.074;8.436;2023-09-08T01:31:36;19.80;99.90
4081;DHT22;2055;50.074;8.436;2023-09-08T01:34:04;19.90;99.90
4081;DHT22;2055;50.074;8.436;2023-09-08T01:36:33;19.80;99.90
4081;DHT22;2055;50.074;8.436;2023-09-08T01:39:00;19.70;99.90
4081;DHT22;2055;50.074;8.436;2023-09-08T01:41:25;19.80;99.90
4081;DHT22;2055;50.074;8.436;2023-09-08T01:43:51;19.70;99.90
4081;DHT22;2055;50.074;8.436;2023-09-08T01:46:16;20.40;99.90
4081;DHT22;2055;50.074;8.436;2023-09-08T01:48:42;19.70;99.90
4081;DHT22;2055;50.074;8.436;2023-09-08T01:51:07;19.40;99.90
4081;DHT22;2055;50.074;8.436;2023-09-08T01:53:33;19.50;99.90
4081;DHT22;2055;50.074;8.436;2023-09-08T01:55:59;19.40;99.90
4081;DHT22;2055;50.074;8.436;2023-09-08T01:58:25;19.10;99.90
4081;DHT22;2055;50.074;8.436;2023-09-08T02:00:51;19.50;99.90
4081;DHT22;2055;50.074;8.436;2023-09-08T02:03:17;18.90;99.90
4081;DHT22;2055;50.074;8.436;2023-09-08T02:05:42;18.80;99.90
4081;DHT22;2055;50.074;8.436;2023-09-08T02:08:08;18.60;99.90
4081;DHT22;2055;50.074;8.436;2023-09-08T02:10:33;18.50;99.90
4081;DHT22;2055;50.074;8.436;2023-09-08T02:12:59;18.50;99.90
4081;DHT22;2055;50.074;8.436;2023-09-08T02:15:24;18.30;99.90
4081;DHT22;2055;50.074;8.436;2023-09-08T02:17:52;18.20;99.90
4081;DHT22;2055;50.074;8.436;2023-09-08T02:20:18;18.60;99.90
4081;DHT22;2055;50.074;8.436;2023-09-08T02:22:44;18.60;99.90
4081;DHT22;2055;50.074;8.436;2023-09-08T02:25:09;18.70;99.90
4081;DHT22;2055;50.074;8.436;2023-09-08T02:27:35;18.80;99.90
4081;DHT22;2055;50.074;8.436;2023-09-08T02:30:01;18.70;99.90
4081;DHT22;2055;50.074;8.436;2023-09-08T02:32:27;19.00;99.90
4081;DHT22;2055;50.074;8.436;2023-09-08T02:34:52;18.70;99.90
4081;DHT22;2055;50.074;8.436;2023-09-08T02:37:18;18.80;99.90
4081;DHT22;2055;50.074;8.436;2023-09-08T02:39:44;19.10;99.90
4081;DHT22;2055;50.074;8.436;2023-09-08T02:42:10;19.30;99.90
4081;DHT22;2055;50.074;8.436;2023-09-08T02:44:35;18.90;99.90
4081;DHT22;2055;50.074;8.436;2023-09-08T02:47:01;18.60;99.90
4081;DHT22;2055;50.074;8.436;2023-09-08T02:49:26;18.90;99.90
4081;DHT22;2055;50.074;8.436;2023-09-08T02:51:52;18.80;99.90
4081;DHT22;2055;50.074;8.436;2023-09-08T02:54:17;18.70;99.90
4081;DHT22;2055;50.074;8.436;2023-09-08T02:56:43;18.80;99.90
4081;DHT22;2055;50.074;8.436;2023-09-08T02:59:08;18.80;99.90
4081;DHT22;2055;50.074;8.436;2023-09-08T03:01:34;18.70;99.90
4081;DHT22;2055;50.074;8.436;2023-09-08T03:04:00;18.60;99.90
4081;DHT22;2055;50.074;8.436;2023-09-08T03:06:25;18.60;99.90
4081;DHT22;2055;50.074;8.436;2023-09-08T03:08:51;18.80;99.90
4081;DHT22;2055;50.074;8.436;2023-09-08T03:11:16;18.60;99.90
4081;DHT22;2055;50.074;8.436;2023-09-08T03:13:42;18.50;99.90
4081;DHT22;2055;50.074;8.436;2023-09-08T03:16:08;18.50;99.90
4081;DHT22;2055;50.074;8.436;2023-09-08T03:18:35;18.50;99.90
4081;DHT22;2055;50.074;8.436;2023-09-08T03:21:02;18.50;99.90
4081;DHT22;2055;50.074;8.436;2023-09-08T03:23:35;18.50;99.90
4081;DHT22;2055;50.074;8.436;2023-09-08T03:26:01;18.60;99.90
4081;DHT22;2055;50.074;8.436;2023-09-08T03:28:27;18.60;99.90
4081;DHT22;2055;50.074;8.436;2023-09-08T03:30:52;18.80;99.90
4081;DHT22;2055;50.074;8.436;2023-09-08T03:33:18;18.50;99.90
4081;DHT22;2055;50.074;8.436;2023-09-08T03:35:43;18.50;99.90
4081;DHT22;2055;50.074;8.436;2023-09-08T03:38:09;18.30;99.90
4081;DHT22;2055;50.074;8.436;2023-09-08T03:40:35;18.30;99.90
4081;DHT22;2055;50.074;8.436;2023-09-08T03:43:01;18.30;99.90
4081;DHT22;2055;50.074;8.436;2023-09-08T03:45:27;18.20;99.90
4081;DHT22;2055;50.074;8.436;2023-09-08T03:47:52;18.10;99.90
4081;DHT22;2055;50.074;8.436;2023-09-08T03:50:18;18.20;99.90
4081;DHT22;2055;50.074;8.436;2023-09-08T03:52:43;18.20;99.90
4081;DHT22;2055;50.074;8.436;2023-09-08T03:55:09;18.10;99.90
4081;DHT22;2055;50.074;8.436;2023-09-08T03:57:34;18.10;99.90
4081;DHT22;2055;50.074;8.436;2023-09-08T04:00:00;18.00;99.90
4081;DHT22;2055;50.074;8.436;2023-09-08T04:02:25;18.00;99.90
4081;DHT22;2055;50.074;8.436;2023-09-08T04:04:51;18.30;99.90
4081;DHT22;2055;50.074;8.436;2023-09-08T04:07:16;17.90;99.90
4081;DHT22;2055;50.074;8.436;2023-09-08T04:09:42;17.90;99.90
4081;DHT22;2055;50.074;8.436;2023-09-08T04:12:08;18.00;99.90
4081;DHT22;2055;50.074;8.436;2023-09-08T04:14:34;17.90;99.90
4081;DHT22;2055;50.074;8.436;2023-09-08T04:17:02;17.80;99.90
4081;DHT22;2055;50.074;8.436;2023-09-08T04:19:28;17.70;99.90
4081;DHT22;2055;50.074;8.436;2023-09-08T04:21:53;17.80;99.90
4081;DHT22;2055;50.074;8.436;2023-09-08T04:24:19;17.90;99.90
4081;DHT22;2055;50.074;8.436;2023-09-08T04:26:45;17.80;99.90
4081;DHT22;2055;50.074;8.436;2023-09-08T04:29:11;17.70;99.90
4081;DHT22;2055;50.074;8.436;2023-09-08T04:31:40;18.10;99.90
4081;DHT22;2055;50.074;8.436;2023-09-08T04:34:06;17.90;99.90
4081;DHT22;2055;50.074;8.436;2023-09-08T04:36:31;17.90;99.90
4081;DHT22;2055;50.074;8.436;2023-09-08T04:38:57;17.90;99.90
4081;DHT22;2055;50.074;8.436;2023-09-08T04:41:22;18.00;99.90
4081;DHT22;2055;50.074;8.436;2023-09-08T04:43:48;17.90;99.90
4081;DHT22;2055;50.074;8.436;2023-09-08T04:46:13;17.80;99.90
4081;DHT22;2055;50.074;8.436;2023-09-08T04:48:39;18.00;99.90
4081;DHT22;2055;50.074;8.436;2023-09-08T04:51:04;17.70;99.90
4081;DHT22;2055;50.074;8.436;2023-09-08T04:53:30;18.70;99.90
4081;DHT22;2055;50.074;8.436;2023-09-08T04:55:55;17.60;99.90
4081;DHT22;2055;50.074;8.436;2023-09-08T04:58:21;17.80;99.90
4081;DHT22;2055;50.074;8.436;2023-09-08T05:00:46;17.50;99.90
4081;DHT22;2055;50.074;8.436;2023-09-08T05:03:12;17.90;99.90
4081;DHT22;2055;50.074;8.436;2023-09-08T05:05:38;20.10;99.90
4081;DHT22;2055;50.074;8.436;2023-09-08T05:08:04;17.90;99.90
4081;DHT22;2055;50.074;8.436;2023-09-08T05:10:30;18.00;99.90
4081;DHT22;2055;50.074;8.436;2023-09-08T05:12:55;17.80;99.90
4081;DHT22;2055;50.074;8.436;2023-09-08T05:15:21;18.10;99.90
4081;DHT22;2055;50.074;8.436;2023-09-08T05:17:47;18.10;99.90
4081;DHT22;2055;50.074;8.436;2023-09-08T05:20:13;18.20;99.90
4081;DHT22;2055;50.074;8.436;2023-09-08T05:22:40;18.10;99.90
4081;DHT22;2055;50.074;8.436;2023-09-08T05:25:06;18.10;99.90
4081;DHT22;2055;50.074;8.436;2023-09-08T05:27:31;18.20;99.90
4081;DHT22;2055;50.074;8.436;2023-09-08T05:29:57;18.20;99.90
4081;DHT22;2055;50.074;8.436;2023-09-08T05:32:23;18.40;99.90
4081;DHT22;2055;50.074;8.436;2023-09-08T05:34:48;18.40;99.90
4081;DHT22;2055;50.074;8.436;2023-09-08T05:37:14;18.60;99.90
4081;DHT22;2055;50.074;8.436;2023-09-08T05:39:40;18.50;99.90
4081;DHT22;2055;50.074;8.436;2023-09-08T05:42:06;18.60;99.90
4081;DHT22;2055;50.074;8.436;2023-09-08T05:44:32;18.60;99.90
4081;DHT22;2055;50.074;8.436;2023-09-08T05:46:57;18.60;99.90
4081;DHT22;2055;50.074;8.436;2023-09-08T05:49:23;18.60;99.90
4081;DHT22;2055;50.074;8.436;2023-09-08T05:51:48;18.70;99.90
4081;DHT22;2055;50.074;8.436;2023-09-08T05:54:14;18.60;99.90
4081;DHT22;2055;50.074;8.436;2023-09-08T05:56:40;18.70;99.90
4081;DHT22;2055;50.074;8.436;2023-09-08T05:59:06;18.70;99.90
4081;DHT22;2055;50.074;8.436;2023-09-08T06:01:32;19.20;99.90
4081;DHT22;2055;50.074;8.436;2023-09-08T06:03:58;18.80;99.90
4081;DHT22;2055;50.074;8.436;2023-09-08T06:06:23;18.90;99.90
4081;DHT22;2055;50.074;8.436;2023-09-08T06:08:50;18.90;99.90
4081;DHT22;2055;50.074;8.436;2023-09-08T06:11:16;18.90;99.90
4081;DHT22;2055;50.074;8.436;2023-09-08T06:13:41;19.00;99.90
4081;DHT22;2055;50.074;8.436;2023-09-08T06:16:07;19.00;99.90
4081;DHT22;2055;50.074;8.436;2023-09-08T06:18:33;19.10;99.90
4081;DHT22;2055;50.074;8.436;2023-09-08T06:21:05;19.20;99.90
4081;DHT22;2055;50.074;8.436;2023-09-08T06:23:31;19.20;99.90
4081;DHT22;2055;50.074;8.436;2023-09-08T06:25:57;19.30;99.90
4081;DHT22;2055;50.074;8.436;2023-09-08T06:28:26;19.30;99.90
4081;DHT22;2055;50.074;8.436;2023-09-08T06:30:52;19.50;99.90
4081;DHT22;2055;50.074;8.436;2023-09-08T06:33:17;19.50;99.90
4081;DHT22;2055;50.074;8.436;2023-09-08T06:35:43;19.50;99.90
4081;DHT22;2055;50.074;8.436;2023-09-08T06:38:08;19.60;99.90
4081;DHT22;2055;50.074;8.436;2023-09-08T06:40:34;19.70;99.90
4081;DHT22;2055;50.074;8.436;2023-09-08T06:42:59;19.60;99.90
4081;DHT22;2055;50.074;8.436;2023-09-08T06:45:25;19.70;99.90
4081;DHT22;2055;50.074;8.436;2023-09-08T06:47:51;19.80;99.90
4081;DHT22;2055;50.074;8.436;2023-09-08T06:50:21;19.80;99.90
4081;DHT22;2055;50.074;8.436;2023-09-08T06:52:47;19.90;99.90
4081;DHT22;2055;50.074;8.436;2023-09-08T06:55:12;20.00;99.90
4081;DHT22;2055;50.074;8.436;2023-09-08T06:57:42;20.10;99.90
4081;DHT22;2055;50.074;8.436;2023-09-08T07:00:08;20.20;99.90
4081;DHT22;2055;50.074;8.436;2023-09-08T07:02:33;20.20;99.90
4081;DHT22;2055;50.074;8.436;2023-09-08T07:04:59;20.30;99.90
4081;DHT22;2055;50.074;8.436;2023-09-08T07:07:26;20.30;99.90
4081;DHT22;2055;50.074;8.436;2023-09-08T07:09:51;20.50;99.90
4081;DHT22;2055;50.074;8.436;2023-09-08T07:12:17;20.40;99.90
4081;DHT22;2055;50.074;8.436;2023-09-08T07:14:42;20.70;99.90
4081;DHT22;2055;50.074;8.436;2023-09-08T07:17:08;20.50;99.90
4081;DHT22;2055;50.074;8.436;2023-09-08T07:19:33;20.50;99.90
4081;DHT22;2055;50.074;8.436;2023-09-08T07:21:59;20.60;99.90
4081;DHT22;2055;50.074;8.436;2023-09-08T07:24:24;20.60;99.90
4081;DHT22;2055;50.074;8.436;2023-09-08T07:26:50;20.60;99.90
4081;DHT22;2055;50.074;8.436;2023-09-08T07:29:16;20.80;99.90
4081;DHT22;2055;50.074;8.436;2023-09-08T07:31:42;20.80;99.90
4081;DHT22;2055;50.074;8.436;2023-09-08T07:34:07;20.90;99.90
4081;DHT22;2055;50.074;8.436;2023-09-08T07:36:33;20.90;99.90
4081;DHT22;2055;50.074;8.436;2023-09-08T07:38:59;20.90;99.90
4081;DHT22;2055;50.074;8.436;2023-09-08T07:41:25;20.80;99.90
4081;DHT22;2055;50.074;8.436;2023-09-08T07:43:50;21.00;99.90
4081;DHT22;2055;50.074;8.436;2023-09-08T07:46:16;21.10;99.90
4081;DHT22;2055;50.074;8.436;2023-09-08T07:48:42;21.10;99.90
4081;DHT22;2055;50.074;8.436;2023-09-08T07:51:07;21.20;99.90
4081;DHT22;2055;50.074;8.436;2023-09-08T07:53:33;21.30;99.90
4081;DHT22;2055;50.074;8.436;2023-09-08T07:55:58;21.40;99.90
4081;DHT22;2055;50.074;8.436;2023-09-08T07:58:24;21.50;99.90
4081;DHT22;2055;50.074;8.436;2023-09-08T08:00:50;21.40;99.90
4081;DHT22;2055;50.074;8.436;2023-09-08T08:03:15;21.50;99.90
4081;DHT22;2055;50.074;8.436;2023-09-08T08:05:41;21.50;99.90
4081;DHT22;2055;50.074;8.436;2023-09-08T08:08:06;21.60;99.90
4081;DHT22;2055;50.074;8.436;2023-09-08T08:10:34;21.60;99.90
4081;DHT22;2055;50.074;8.436;2023-09-08T08:12:59;22.00;99.90
4081;DHT22;2055;50.074;8.436;2023-09-08T08:15:35;21.70;99.90
4081;DHT22;2055;50.074;8.436;2023-09-08T08:18:02;21.70;99.90
4081;DHT22;2055;50.074;8.436;2023-09-08T08:20:28;21.90;99.90
4081;DHT22;2055;50.074;8.436;2023-09-08T08:22:53;22.00;99.90
4081;DHT22;2055;50.074;8.436;2023-09-08T08:25:19;22.10;99.90
4081;DHT22;2055;50.074;8.436;2023-09-08T08:27:44;22.30;99.90
4081;DHT22;2055;50.074;8.436;2023-09-08T08:30:10;22.20;99.90
4081;DHT22;2055;50.074;8.436;2023-09-08T08:32:36;22.20;99.90
4081;DHT22;2055;50.074;8.436;2023-09-08T08:35:02;22.30;99.90
4081;DHT22;2055;50.074;8.436;2023-09-08T08:37:30;22.50;99.90
4081;DHT22;2055;50.074;8.436;2023-09-08T08:39:55;22.50;99.90
4081;DHT22;2055;50.074;8.436;2023-09-08T08:42:21;22.60;99.90
4081;DHT22;2055;50.074;8.436;2023-09-08T08:44:48;22.60;99.90
4081;DHT22;2055;50.074;8.436;2023-09-08T08:47:14;22.50;99.90
4081;DHT22;2055;50.074;8.436;2023-09-08T08:49:44;22.70;99.90
4081;DHT22;2055;50.074;8.436;2023-09-08T08:52:13;22.90;99.90
4081;DHT22;2055;50.074;8.436;2023-09-08T08:54:40;23.10;99.90
4081;DHT22;2055;50.074;8.436;2023-09-08T08:57:06;23.10;99.90
4081;DHT22;2055;50.074;8.436;2023-09-08T08:59:32;23.20;99.90
4081;DHT22;2055;50.074;8.436;2023-09-08T09:02:02;23.30;99.90
4081;DHT22;2055;50.074;8.436;2023-09-08T09:04:29;23.50;99.90
4081;DHT22;2055;50.074;8.436;2023-09-08T09:06:55;23.60;99.90
4081;DHT22;2055;50.074;8.436;2023-09-08T09:09:21;23.70;99.90
4081;DHT22;2055;50.074;8.436;2023-09-08T09:11:47;23.90;99.90
4081;DHT22;2055;50.074;8.436;2023-09-08T09:14:12;23.70;99.90
4081;DHT22;2055;50.074;8.436;2023-09-08T09:16:39;23.70;99.90
4081;DHT22;2055;50.074;8.436;2023-09-08T09:19:05;23.70;99.90
4081;DHT22;2055;50.074;8.436;2023-09-08T09:21:45;23.70;99.90
4081;DHT22;2055;50.074;8.436;2023-09-08T09:24:33;24.00;99.90
4081;DHT22;2055;50.074;8.436;2023-09-08T09:27:00;24.10;99.90
4081;DHT22;2055;50.074;8.436;2023-09-08T09:29:27;24.00;99.90
4081;DHT22;2055;50.074;8.436;2023-09-08T09:31:54;24.10;99.90
4081;DHT22;2055;50.074;8.436;2023-09-08T09:34:21;24.30;99.90
4081;DHT22;2055;50.074;8.436;2023-09-08T09:36:48;24.30;99.90
4081;DHT22;2055;50.074;8.436;2023-09-08T09:39:18;24.50;99.90
4081;DHT22;2055;50.074;8.436;2023-09-08T09:41:45;24.70;99.90
4081;DHT22;2055;50.074;8.436;2023-09-08T09:44:11;24.70;99.90
4081;DHT22;2055;50.074;8.436;2023-09-08T09:46:37;24.80;99.90
4081;DHT22;2055;50.074;8.436;2023-09-08T09:49:03;25.00;99.90
4081;DHT22;2055;50.074;8.436;2023-09-08T09:51:29;25.10;99.90
4081;DHT22;2055;50.074;8.436;2023-09-08T09:53:55;25.10;99.90
4081;DHT22;2055;50.074;8.436;2023-09-08T09:56:22;25.80;99.90
4081;DHT22;2055;50.074;8.436;2023-09-08T09:58:49;27.10;99.90
4081;DHT22;2055;50.074;8.436;2023-09-08T10:01:15;27.90;99.90
4081;DHT22;2055;50.074;8.436;2023-09-08T10:03:42;28.40;99.90
4081;DHT22;2055;50.074;8.436;2023-09-08T10:06:08;28.60;99.90
4081;DHT22;2055;50.074;8.436;2023-09-08T10:08:35;28.80;99.90
4081;DHT22;2055;50.074;8.436;2023-09-08T10:11:07;29.20;99.90
4081;DHT22;2055;50.074;8.436;2023-09-08T10:13:42;29.40;99.90
4081;DHT22;2055;50.074;8.436;2023-09-08T10:16:09;29.40;99.90
4081;DHT22;2055;50.074;8.436;2023-09-08T10:18:39;29.50;99.90
4081;DHT22;2055;50.074;8.436;2023-09-08T10:21:08;29.40;99.90
4081;DHT22;2055;50.074;8.436;2023-09-08T10:26:03;29.30;99.90
4081;DHT22;2055;50.074;8.436;2023-09-08T10:28:32;29.40;99.90
4081;DHT22;2055;50.074;8.436;2023-09-08T10:30:59;29.40;99.90
4081;DHT22;2055;50.074;8.436;2023-09-08T10:33:25;29.40;99.90
4081;DHT22;2055;50.074;8.436;2023-09-08T10:35:52;29.40;99.90
4081;DHT22;2055;50.074;8.436;2023-09-08T10:38:25;29.30;99.90
4081;DHT22;2055;50.074;8.436;2023-09-08T10:40:52;29.60;99.90
4081;DHT22;2055;50.074;8.436;2023-09-08T10:43:19;30.10;99.90
4081;DHT22;2055;50.074;8.436;2023-09-08T10:45:46;30.10;99.90
4081;DHT22;2055;50.074;8.436;2023-09-08T10:48:12;30.30;99.90
4081;DHT22;2055;50.074;8.436;2023-09-08T10:50:40;29.90;99.90
4081;DHT22;2055;50.074;8.436;2023-09-08T10:55:46;30.00;99.90
4081;DHT22;2055;50.074;8.436;2023-09-08T10:58:18;30.00;99.90
4081;DHT22;2055;50.074;8.436;2023-09-08T11:00:51;30.10;99.90
4081;DHT22;2055;50.074;8.436;2023-09-08T11:03:43;30.60;99.90
4081;DHT22;2055;50.074;8.436;2023-09-08T11:06:10;30.60;99.90
4081;DHT22;2055;50.074;8.436;2023-09-08T11:08:42;31.10;99.90
4081;DHT22;2055;50.074;8.436;2023-09-08T11:11:10;30.40;99.90
4081;DHT22;2055;50.074;8.436;2023-09-08T11:13:46;30.40;99.90
4081;DHT22;2055;50.074;8.436;2023-09-08T11:16:16;30.40;99.90
4081;DHT22;2055;50.074;8.436;2023-09-08T11:18:42;30.30;99.90
4081;DHT22;2055;50.074;8.436;2023-09-08T11:21:09;30.40;99.90
4081;DHT22;2055;50.074;8.436;2023-09-08T11:23:35;30.30;99.90
4081;DHT22;2055;50.074;8.436;2023-09-08T11:26:01;30.80;99.90
4081;DHT22;2055;50.074;8.436;2023-09-08T11:28:28;30.70;99.90
4081;DHT22;2055;50.074;8.436;2023-09-08T11:30:54;31.00;99.90
4081;DHT22;2055;50.074;8.436;2023-09-08T11:33:22;31.40;99.90
4081;DHT22;2055;50.074;8.436;2023-09-08T11:35:51;31.80;99.90
4081;DHT22;2055;50.074;8.436;2023-09-08T11:38:28;31.60;99.90
4081;DHT22;2055;50.074;8.436;2023-09-08T11:40:55;31.60;99.90
4081;DHT22;2055;50.074;8.436;2023-09-08T11:43:22;31.40;99.90
4081;DHT22;2055;50.074;8.436;2023-09-08T11:45:48;31.40;99.90
4081;DHT22;2055;50.074;8.436;2023-09-08T11:48:14;31.80;99.90
4081;DHT22;2055;50.074;8.436;2023-09-08T11:50:41;30.60;99.90
4081;DHT22;2055;50.074;8.436;2023-09-08T11:53:08;31.20;99.90
4081;DHT22;2055;50.074;8.436;2023-09-08T11:55:34;31.70;99.90
4081;DHT22;2055;50.074;8.436;2023-09-08T11:58:02;31.50;99.90
4081;DHT22;2055;50.074;8.436;2023-09-08T12:00:28;31.90;99.90
4081;DHT22;2055;50.074;8.436;2023-09-08T12:02:54;32.10;99.90
4081;DHT22;2055;50.074;8.436;2023-09-08T12:05:25;32.10;99.90
4081;DHT22;2055;50.074;8.436;2023-09-08T12:07:51;32.00;99.90
4081;DHT22;2055;50.074;8.436;2023-09-08T12:10:18;32.00;99.90
4081;DHT22;2055;50.074;8.436;2023-09-08T12:12:50;32.10;99.90
4081;DHT22;2055;50.074;8.436;2023-09-08T12:15:33;32.20;99.90
4081;DHT22;2055;50.074;8.436;2023-09-08T12:17:59;32.10;99.50
4081;DHT22;2055;50.074;8.436;2023-09-08T12:20:27;31.90;99.90
4081;DHT22;2055;50.074;8.436;2023-09-08T12:22:53;32.50;99.90
4081;DHT22;2055;50.074;8.436;2023-09-08T12:25:18;32.50;99.90
4081;DHT22;2055;50.074;8.436;2023-09-08T12:27:45;33.40;99.50
4081;DHT22;2055;50.074;8.436;2023-09-08T12:30:23;33.70;99.90
4081;DHT22;2055;50.074;8.436;2023-09-08T12:32:57;33.30;99.70
4081;DHT22;2055;50.074;8.436;2023-09-08T12:35:24;33.10;98.80
4081;DHT22;2055;50.074;8.436;2023-09-08T12:37:57;32.80;98.80
4081;DHT22;2055;50.074;8.436;2023-09-08T12:40:25;32.80;98.80
4081;DHT22;2055;50.074;8.436;2023-09-08T12:42:50;33.10;99.60
4081;DHT22;2055;50.074;8.436;2023-09-08T12:45:16;33.60;98.10
4081;DHT22;2055;50.074;8.436;2023-09-08T12:47:42;32.50;99.90
4081;DHT22;2055;50.074;8.436;2023-09-08T12:50:08;33.00;99.80
4081;DHT22;2055;50.074;8.436;2023-09-08T12:52:35;32.60;99.00
4081;DHT22;2055;50.074;8.436;2023-09-08T12:55:00;32.90;98.90
4081;DHT22;2055;50.074;8.436;2023-09-08T12:57:26;33.10;98.60
4081;DHT22;2055;50.074;8.436;2023-09-08T12:59:51;32.50;99.00
4081;DHT22;2055;50.074;8.436;2023-09-08T13:02:17;32.50;99.90
4081;DHT22;2055;50.074;8.436;2023-09-08T13:04:43;33.00;99.90
4081;DHT22;2055;50.074;8.436;2023-09-08T13:07:16;33.40;97.60
4081;DHT22;2055;50.074;8.436;2023-09-08T13:09:42;33.30;98.30
4081;DHT22;2055;50.074;8.436;2023-09-08T13:12:08;33.60;97.50
4081;DHT22;2055;50.074;8.436;2023-09-08T13:14:38;33.90;96.00
4081;DHT22;2055;50.074;8.436;2023-09-08T13:17:04;33.80;97.30
4081;DHT22;2055;50.074;8.436;2023-09-08T13:19:30;33.70;96.50
4081;DHT22;2055;50.074;8.436;2023-09-08T13:21:56;34.10;96.60
4081;DHT22;2055;50.074;8.436;2023-09-08T13:24:22;34.00;94.90
4081;DHT22;2055;50.074;8.436;2023-09-08T13:26:48;33.90;96.80
4081;DHT22;2055;50.074;8.436;2023-09-08T13:29:14;33.70;96.30
4081;DHT22;2055;50.074;8.436;2023-09-08T13:31:39;33.80;97.10
4081;DHT22;2055;50.074;8.436;2023-09-08T13:34:05;34.10;97.30
4081;DHT22;2055;50.074;8.436;2023-09-08T13:36:30;34.90;94.90
4081;DHT22;2055;50.074;8.436;2023-09-08T13:38:57;35.30;94.60
4081;DHT22;2055;50.074;8.436;2023-09-08T13:41:53;35.10;92.10
4081;DHT22;2055;50.074;8.436;2023-09-08T13:44:20;35.10;91.40
4081;DHT22;2055;50.074;8.436;2023-09-08T13:46:47;34.80;93.70
4081;DHT22;2055;50.074;8.436;2023-09-08T13:49:13;34.90;90.90
4081;DHT22;2055;50.074;8.436;2023-09-08T13:51:39;35.60;93.30
4081;DHT22;2055;50.074;8.436;2023-09-08T13:54:05;36.10;93.30
4081;DHT22;2055;50.074;8.436;2023-09-08T13:56:31;36.20;91.10
4081;DHT22;2055;50.074;8.436;2023-09-08T13:58:57;36.00;90.70
4081;DHT22;2055;50.074;8.436;2023-09-08T14:01:22;35.70;90.20
4081;DHT22;2055;50.074;8.436;2023-09-08T14:03:48;36.10;91.70
4081;DHT22;2055;50.074;8.436;2023-09-08T14:06:17;36.50;89.50
4081;DHT22;2055;50.074;8.436;2023-09-08T14:08:43;36.40;90.10
4081;DHT22;2055;50.074;8.436;2023-09-08T14:11:09;36.50;89.30
4081;DHT22;2055;50.074;8.436;2023-09-08T14:13:34;36.20;89.50
4081;DHT22;2055;50.074;8.436;2023-09-08T14:16:00;36.00;90.90
4081;DHT22;2055;50.074;8.436;2023-09-08T14:18:26;36.60;89.20
4081;DHT22;2055;50.074;8.436;2023-09-08T14:20:51;36.30;89.90
4081;DHT22;2055;50.074;8.436;2023-09-08T14:23:17;35.80;85.80
4081;DHT22;2055;50.074;8.436;2023-09-08T14:25:43;36.80;85.50
4081;DHT22;2055;50.074;8.436;2023-09-08T14:28:08;37.10;84.30
4081;DHT22;2055;50.074;8.436;2023-09-08T14:30:34;36.10;86.50
4081;DHT22;2055;50.074;8.436;2023-09-08T14:33:00;35.90;84.00
4081;DHT22;2055;50.074;8.436;2023-09-08T14:35:26;35.00;85.10
4081;DHT22;2055;50.074;8.436;2023-09-08T14:37:51;34.70;84.00
4081;DHT22;2055;50.074;8.436;2023-09-08T14:40:17;35.20;87.50
4081;DHT22;2055;50.074;8.436;2023-09-08T14:42:42;35.40;89.60
4081;DHT22;2055;50.074;8.436;2023-09-08T14:45:08;36.60;87.60
4081;DHT22;2055;50.074;8.436;2023-09-08T14:47:34;35.80;87.90
4081;DHT22;2055;50.074;8.436;2023-09-08T14:50:00;35.50;87.50
4081;DHT22;2055;50.074;8.436;2023-09-08T14:52:26;35.00;84.80
4081;DHT22;2055;50.074;8.436;2023-09-08T14:54:51;35.90;84.10
4081;DHT22;2055;50.074;8.436;2023-09-08T14:57:17;35.30;84.70
4081;DHT22;2055;50.074;8.436;2023-09-08T14:59:43;35.30;84.60
4081;DHT22;2055;50.074;8.436;2023-09-08T15:02:09;35.40;83.80
4081;DHT22;2055;50.074;8.436;2023-09-08T15:04:35;34.80;82.40
4081;DHT22;2055;50.074;8.436;2023-09-08T15:07:00;35.00;85.30
4081;DHT22;2055;50.074;8.436;2023-09-08T15:09:26;35.30;81.20
4081;DHT22;2055;50.074;8.436;2023-09-08T15:11:51;35.90;82.10
4081;DHT22;2055;50.074;8.436;2023-09-08T15:14:17;35.60;79.40
4081;DHT22;2055;50.074;8.436;2023-09-08T15:16:42;36.10;81.50
4081;DHT22;2055;50.074;8.436;2023-09-08T15:19:08;36.50;77.10
4081;DHT22;2055;50.074;8.436;2023-09-08T15:21:34;36.40;82.10
4081;DHT22;2055;50.074;8.436;2023-09-08T15:23:59;36.40;74.70
4081;DHT22;2055;50.074;8.436;2023-09-08T15:26:25;36.40;76.90
4081;DHT22;2055;50.074;8.436;2023-09-08T15:28:51;36.50;75.20
4081;DHT22;2055;50.074;8.436;2023-09-08T15:31:16;37.50;74.90
4081;DHT22;2055;50.074;8.436;2023-09-08T15:33:42;37.00;76.20
4081;DHT22;2055;50.074;8.436;2023-09-08T15:36:08;36.80;73.50
4081;DHT22;2055;50.074;8.436;2023-09-08T15:38:33;36.90;73.90
4081;DHT22;2055;50.074;8.436;2023-09-08T15:43:36;35.50;76.50
4081;DHT22;2055;50.074;8.436;2023-09-08T15:46:02;36.00;78.30
4081;DHT22;2055;50.074;8.436;2023-09-08T15:48:27;35.50;81.10
4081;DHT22;2055;50.074;8.436;2023-09-08T15:50:53;36.10;78.40
4081;DHT22;2055;50.074;8.436;2023-09-08T15:53:19;36.70;78.20
4081;DHT22;2055;50.074;8.436;2023-09-08T15:55:44;36.80;76.70
4081;DHT22;2055;50.074;8.436;2023-09-08T15:58:10;36.80;74.80
4081;DHT22;2055;50.074;8.436;2023-09-08T16:00:35;36.00;74.60
4081;DHT22;2055;50.074;8.436;2023-09-08T16:03:01;35.10;74.70
4081;DHT22;2055;50.074;8.436;2023-09-08T16:05:27;34.10;79.70